Time;durP1;ratioP1;P1;durP2;ratioP2;P2;SDS_P1;SDS_P2;PMS_P1;PMS_P2;Temp;Humidity;BMP_temperature;BMP_pressure;BME280_temperature;BME280_humidity;BME280_pressure;Samples;Min_cycle;Max_cycle;Signal;HPM_P1;HPM_P2
2022/07/25 00:01:00;;;;;;;3.72;1.48;;;22.90;45.40;;;;;;5027936;28;20029;-69
2022/07/25 00:03:26;;;;;;;3.65;1.40;;;24.40;46.10;;;;;;5025273;28;20029;-69
2022/07/25 00:05:52;;;;;;;5.88;1.30;;;23.80;45.90;;;;;;5025499;28;20072;-69
2022/07/25 00:08:17;;;;;;;3.75;1.30;;;24.10;46.10;;;;;;5027399;28;20041;-69
2022/07/25 00:10:44;;;;;;;4.18;1.50;;;24.30;46.20;;;;;;5027670;28;20496;-69
2022/07/25 00:13:09;;;;;;;5.30;1.50;;;24.20;46.10;;;;;;5023082;28;20053;-69
2022/07/25 00:15:35;;;;;;;5.18;1.60;;;23.80;46.00;;;;;;5031524;28;20097;-70
2022/07/25 00:18:01;;;;;;;4.25;1.40;;;23.80;46.00;;;;;;5028143;28;20547;-69
2022/07/25 00:20:27;;;;;;;3.55;1.30;;;23.70;46.00;;;;;;5027377;28;20500;-69
2022/07/25 00:22:52;;;;;;;3.97;1.40;;;23.80;46.20;;;;;;5015630;28;20021;-69
2022/07/25 00:25:18;;;;;;;6.45;1.60;;;23.70;46.30;;;;;;5028708;28;20382;-69
2022/07/25 00:27:44;;;;;;;3.45;1.45;;;23.60;46.30;;;;;;5022751;28;20112;-69
2022/07/25 00:30:10;;;;;;;6.82;1.55;;;23.60;46.40;;;;;;5030107;28;20499;-69
2022/07/25 00:32:35;;;;;;;5.93;1.60;;;23.50;46.70;;;;;;5026927;28;20025;-69
2022/07/25 00:35:01;;;;;;;3.75;1.42;;;23.60;46.90;;;;;;5014374;28;20128;-69
2022/07/25 00:37:27;;;;;;;4.93;1.50;;;23.90;47.40;;;;;;5027657;28;20453;-70
2022/07/25 00:39:52;;;;;;;5.78;1.40;;;23.40;47.70;;;;;;5026914;28;20025;-69
2022/07/25 00:42:18;;;;;;;2.40;1.20;;;23.80;48.50;;;;;;5030392;28;20628;-69
2022/07/25 00:44:44;;;;;;;4.07;1.27;;;23.20;48.40;;;;;;5033968;28;20040;-69
2022/07/25 00:47:10;;;;;;;4.40;1.33;;;23.10;48.60;;;;;;5033470;28;20167;-69
2022/07/25 00:49:35;;;;;;;4.95;1.30;;;23.10;48.80;;;;;;5032167;28;20036;-69
2022/07/25 00:52:01;;;;;;;5.45;1.30;;;23.10;49.10;;;;;;5030753;28;20017;-69
2022/07/25 00:54:28;;;;;;;4.22;1.48;;;23.10;49.20;;;;;;5027671;28;20064;-69
2022/07/25 00:56:53;;;;;;;4.00;1.45;;;23.20;49.40;;;;;;5031807;28;20030;-69
2022/07/25 00:59:19;;;;;;;2.95;1.20;;;22.30;49.30;;;;;;5030643;28;20028;-69
2022/07/25 01:01:46;;;;;;;4.13;1.33;;;23.10;50.00;;;;;;5030732;28;20084;-69
2022/07/25 01:04:13;;;;;;;5.90;1.30;;;22.90;50.50;;;;;;5028346;28;20120;-69
2022/07/25 01:06:39;;;;;;;5.10;1.20;;;22.90;50.80;;;;;;5028043;28;20950;-69
2022/07/25 01:09:04;;;;;;;2.83;1.33;;;22.90;51.00;;;;;;5023261;28;20033;-69
2022/07/25 01:11:30;;;;;;;3.30;1.30;;;23.00;51.30;;;;;;5034745;28;20021;-69
2022/07/25 01:13:56;;;;;;;4.55;1.40;;;21.90;51.00;;;;;;5031129;28;20500;-69
2022/07/25 01:16:21;;;;;;;5.80;1.30;;;23.00;51.70;;;;;;5027879;28;20091;-69
2022/07/25 01:18:47;;;;;;;3.97;1.15;;;22.10;51.40;;;;;;5032816;28;20805;-69
2022/07/25 01:21:13;;;;;;;4.13;1.55;;;22.60;51.80;;;;;;5028910;28;20018;-69
2022/07/25 01:23:39;;;;;;;2.60;1.25;;;22.60;51.80;;;;;;5026042;28;20408;-69
2022/07/25 01:26:05;;;;;;;5.78;1.40;;;22.60;52.20;;;;;;5033082;28;20025;-69
2022/07/25 01:28:31;;;;;;;5.70;1.52;;;22.90;52.60;;;;;;5027792;28;20037;-69
2022/07/25 01:30:57;;;;;;;4.63;1.50;;;22.70;52.50;;;;;;5022443;28;20156;-69
2022/07/25 01:33:22;;;;;;;6.07;1.30;;;22.80;52.60;;;;;;5024618;28;20030;-69
2022/07/25 01:35:49;;;;;;;7.18;1.50;;;22.90;52.70;;;;;;5027392;28;20075;-69
2022/07/25 01:38:15;;;;;;;4.75;1.45;;;22.60;52.60;;;;;;5029607;28;20082;-69
2022/07/25 01:40:42;;;;;;;5.00;1.30;;;22.70;53.30;;;;;;5024444;28;20112;-69
2022/07/25 01:43:08;;;;;;;3.50;1.33;;;22.70;53.20;;;;;;5024046;28;20045;-69
2022/07/25 01:45:35;;;;;;;4.90;1.30;;;22.60;53.10;;;;;;5032552;28;20120;-69
2022/07/25 01:48:00;;;;;;;3.95;1.50;;;22.60;53.00;;;;;;5032935;28;20033;-69
2022/07/25 01:50:26;;;;;;;3.58;1.30;;;22.30;53.20;;;;;;5033014;28;20029;-69
2022/07/25 01:52:52;;;;;;;3.80;1.38;;;22.50;54.00;;;;;;5023422;28;20022;-68
2022/07/25 01:55:18;;;;;;;4.35;1.38;;;22.70;53.40;;;;;;5029070;28;20044;-69
2022/07/25 01:57:44;;;;;;;4.20;1.58;;;22.40;53.90;;;;;;5025426;28;20033;-69
2022/07/25 02:00:12;;;;;;;3.22;1.27;;;22.20;53.40;;;;;;5030532;28;20021;-69
2022/07/25 02:02:39;;;;;;;9.05;1.73;;;22.20;54.00;;;;;;5032998;28;20037;-69
2022/07/25 02:05:05;;;;;;;4.15;1.60;;;22.20;54.00;;;;;;5014996;28;20058;-69
2022/07/25 02:07:31;;;;;;;3.67;1.38;;;22.20;53.50;;;;;;5022883;28;20022;-69
2022/07/25 02:09:57;;;;;;;3.55;1.23;;;22.20;53.50;;;;;;5029913;28;20044;-69
2022/07/25 02:12:22;;;;;;;3.67;1.40;;;22.10;54.10;;;;;;5029301;28;20104;-69
2022/07/25 02:14:48;;;;;;;5.15;1.60;;;22.10;54.20;;;;;;5027455;28;20041;-69
2022/07/25 02:17:14;;;;;;;3.90;1.27;;;22.00;53.40;;;;;;5021439;28;20040;-69
2022/07/25 02:19:40;;;;;;;5.53;1.67;;;21.90;53.90;;;;;;5028501;28;20026;-69
2022/07/25 02:22:06;;;;;;;5.28;1.45;;;21.90;53.90;;;;;;5029694;28;20066;-69
2022/07/25 02:24:31;;;;;;;5.72;1.50;;;21.90;54.90;;;;;;5026002;28;20037;-69
2022/07/25 02:26:57;;;;;;;6.15;1.50;;;21.80;55.20;;;;;;5029613;28;20022;-69
2022/07/25 02:29:23;;;;;;;6.63;1.50;;;21.80;55.50;;;;;;5030926;28;20021;-69
2022/07/25 02:31:50;;;;;;;3.25;1.27;;;21.80;54.90;;;;;;5028898;28;20030;-69
2022/07/25 02:34:16;;;;;;;3.85;1.38;;;21.70;55.10;;;;;;5020413;28;20037;-69
2022/07/25 02:36:42;;;;;;;5.60;2.20;;;21.70;55.80;;;;;;5025501;28;20056;-69
2022/07/25 02:39:08;;;;;;;4.00;1.98;;;21.70;55.80;;;;;;5028914;28;20436;-69
2022/07/25 02:41:34;;;;;;;4.93;1.45;;;21.70;55.70;;;;;;5019663;28;20499;-69
2022/07/25 02:44:00;;;;;;;5.80;1.98;;;21.70;55.20;;;;;;5029780;28;20550;-69
2022/07/25 02:46:25;;;;;;;6.35;1.75;;;21.70;55.00;;;;;;5030594;28;20634;-69
2022/07/25 02:48:51;;;;;;;4.00;1.50;;;21.70;55.00;;;;;;5029724;28;20048;-69
2022/07/25 02:51:17;;;;;;;4.38;1.60;;;21.70;55.20;;;;;;5029341;28;20052;-69
2022/07/25 02:53:43;;;;;;;4.40;1.40;;;21.60;56.10;;;;;;5028069;28;20049;-69
2022/07/25 02:56:09;;;;;;;4.15;1.30;;;21.70;56.30;;;;;;5022230;28;20059;-69
2022/07/25 02:58:34;;;;;;;3.80;1.30;;;21.70;56.50;;;;;;5028488;28;20159;-69
2022/07/25 03:01:00;;;;;;;4.70;1.48;;;21.70;56.60;;;;;;5019830;28;20442;-69
2022/07/25 03:03:27;;;;;;;5.25;1.50;;;21.70;57.30;;;;;;5030778;28;20022;-69
2022/07/25 03:05:52;;;;;;;4.18;1.52;;;21.80;57.20;;;;;;5029626;28;20495;-69
2022/07/25 03:08:18;;;;;;;5.90;1.60;;;21.80;58.20;;;;;;5023645;28;20136;-69
2022/07/25 03:10:44;;;;;;;6.07;1.60;;;21.90;58.80;;;;;;5027527;28;20086;-69
2022/07/25 03:13:09;;;;;;;4.13;1.35;;;22.00;59.20;;;;;;5023457;28;20033;-69
2022/07/25 03:15:35;;;;;;;6.35;1.38;;;22.00;59.40;;;;;;5030723;28;20037;-69
2022/07/25 03:18:01;;;;;;;5.63;1.50;;;22.00;58.90;;;;;;5030064;28;20033;-69
2022/07/25 03:20:26;;;;;;;4.70;1.40;;;22.10;60.00;;;;;;5029254;28;20032;-69
2022/07/25 03:22:52;;;;;;;5.80;1.40;;;22.20;59.50;;;;;;5028115;28;20038;-69
2022/07/25 03:25:18;;;;;;;4.47;1.33;;;22.20;60.20;;;;;;5024306;28;20083;-69
2022/07/25 03:27:44;;;;;;;5.13;1.25;;;22.30;60.40;;;;;;5028251;28;20183;-69
2022/07/25 03:30:11;;;;;;;4.20;1.50;;;22.30;60.70;;;;;;5029044;28;20528;-69
2022/07/25 03:32:37;;;;;;;3.38;1.45;;;22.30;60.10;;;;;;5025523;28;20030;-69
2022/07/25 03:35:03;;;;;;;3.63;1.20;;;22.40;61.10;;;;;;5019096;28;20033;-69
2022/07/25 03:37:29;;;;;;;4.22;1.30;;;22.40;61.60;;;;;;5028406;28;20623;-69
2022/07/25 03:39:55;;;;;;;5.88;1.50;;;22.40;61.70;;;;;;5022509;28;20495;-69
2022/07/25 03:42:22;;;;;;;3.85;1.52;;;22.40;62.00;;;;;;5022620;28;20033;-69
2022/07/25 03:44:48;;;;;;;4.45;1.48;;;22.40;61.90;;;;;;5024277;28;20120;-69
2022/07/25 03:47:14;;;;;;;5.30;1.30;;;22.40;62.80;;;;;;5029096;28;20770;-69
2022/07/25 03:49:40;;;;;;;3.10;1.33;;;22.50;63.10;;;;;;5024424;28;20025;-69
2022/07/25 03:52:05;;;;;;;6.50;1.50;;;22.50;63.10;;;;;;5028751;28;20044;-69
2022/07/25 03:54:31;;;;;;;4.13;1.50;;;22.50;63.30;;;;;;5024758;28;20084;-69
2022/07/25 03:56:57;;;;;;;3.40;1.30;;;22.50;63.70;;;;;;5023955;28;20048;-69
2022/07/25 03:59:22;;;;;;;4.75;1.38;;;22.50;63.90;;;;;;5028226;28;20025;-69
2022/07/25 04:01:50;;;;;;;3.53;1.40;;;22.50;63.90;;;;;;5026265;28;20160;-69
2022/07/25 04:04:17;;;;;;;6.57;1.50;;;22.60;64.20;;;;;;5027343;28;20041;-68
2022/07/25 04:06:44;;;;;;;4.43;1.50;;;22.60;64.10;;;;;;5026508;28;20500;-69
2022/07/25 04:09:10;;;;;;;5.10;1.58;;;22.50;64.30;;;;;;5029188;28;20498;-69
2022/07/25 04:11:37;;;;;;;4.07;1.45;;;22.60;64.30;;;;;;5025913;28;20060;-68
2022/07/25 04:14:03;;;;;;;2.92;1.40;;;22.60;63.60;;;;;;5027152;28;20033;-68
2022/07/25 04:16:29;;;;;;;4.95;1.48;;;22.60;63.70;;;;;;5029669;28;20113;-68
2022/07/25 04:18:56;;;;;;;6.32;1.50;;;22.60;63.80;;;;;;5035135;28;20017;-68
2022/07/25 04:21:22;;;;;;;4.15;1.50;;;22.60;65.00;;;;;;5034798;28;20447;-68
2022/07/25 04:23:48;;;;;;;3.78;1.63;;;22.60;66.00;;;;;;5027033;28;20112;-68
2022/07/25 04:26:14;;;;;;;4.75;1.50;;;22.60;66.00;;;;;;5018798;28;20104;-68
2022/07/25 04:28:40;;;;;;;3.35;1.55;;;22.50;66.00;;;;;;5027150;28;20171;-68
2022/07/25 04:31:06;;;;;;;5.65;1.60;;;22.50;66.30;;;;;;5032444;28;20060;-67
2022/07/25 04:33:31;;;;;;;6.03;1.88;;;22.50;66.40;;;;;;5032317;28;20052;-68
2022/07/25 04:35:57;;;;;;;3.97;1.40;;;22.50;65.80;;;;;;5031960;28;20030;-68
2022/07/25 04:38:23;;;;;;;6.07;2.00;;;22.50;66.00;;;;;;5030234;28;20025;-68
2022/07/25 04:40:48;;;;;;;7.32;1.98;;;22.60;66.40;;;;;;5026143;28;20163;-69
2022/07/25 04:43:14;;;;;;;5.20;1.58;;;22.50;67.40;;;;;;5029046;28;20052;-68
2022/07/25 04:45:40;;;;;;;4.05;1.83;;;22.50;66.90;;;;;;5024141;28;20037;-68
2022/07/25 04:48:06;;;;;;;5.20;2.00;;;22.50;66.90;;;;;;5027204;28;20037;-67
2022/07/25 04:50:32;;;;;;;6.65;2.00;;;22.60;67.80;;;;;;5024339;28;20029;-67
2022/07/25 04:52:57;;;;;;;5.18;1.83;;;22.50;67.70;;;;;;5028265;28;20040;-68
2022/07/25 04:55:23;;;;;;;7.50;1.90;;;22.60;67.90;;;;;;5029917;28;20477;-69
2022/07/25 04:57:49;;;;;;;6.47;2.10;;;22.50;68.80;;;;;;5032645;28;20424;-68
2022/07/25 05:00:15;;;;;;;6.18;2.30;;;23.10;68.90;;;;;;5028315;28;20074;-68
2022/07/25 05:02:41;;;;;;;8.38;2.28;;;22.50;68.90;;;;;;5031848;28;20028;-68
2022/07/25 05:05:08;;;;;;;6.00;2.13;;;22.50;69.00;;;;;;5027563;28;20034;-68
2022/07/25 05:07:34;;;;;;;6.57;2.60;;;22.60;69.50;;;;;;5017277;28;20021;-68
2022/07/25 05:10:00;;;;;;;8.18;2.35;;;22.60;69.90;;;;;;5025680;28;20029;-68
2022/07/25 05:12:26;;;;;;;9.65;2.38;;;22.50;69.70;;;;;;5025490;28;20030;-69
2022/07/25 05:14:53;;;;;;;7.80;2.38;;;22.50;70.40;;;;;;5030544;28;20499;-68
2022/07/25 05:17:19;;;;;;;6.57;1.98;;;22.40;69.50;;;;;;5027709;28;20112;-67
2022/07/25 05:19:45;;;;;;;4.53;2.05;;;22.60;70.40;;;;;;5024838;28;20072;-67
2022/07/25 05:22:10;;;;;;;6.78;2.00;;;22.60;69.30;;;;;;5033185;28;20049;-68
2022/07/25 05:24:36;;;;;;;6.50;2.30;;;22.70;70.00;;;;;;5032698;28;20040;-68
2022/07/25 05:27:03;;;;;;;7.43;2.78;;;22.70;70.00;;;;;;5029251;28;20028;-69
2022/07/25 05:29:29;;;;;;;5.88;2.45;;;22.80;69.40;;;;;;5032220;28;20032;-69
2022/07/25 05:31:55;;;;;;;7.85;2.00;;;22.80;69.70;;;;;;5015719;28;20060;-70
2022/07/25 05:34:21;;;;;;;6.72;2.10;;;22.80;70.30;;;;;;5028761;28;20073;-69
2022/07/25 05:36:47;;;;;;;7.30;2.45;;;23.20;69.20;;;;;;5027306;28;20024;-68
2022/07/25 05:39:13;;;;;;;5.30;2.00;;;23.90;70.40;;;;;;5030497;28;20033;-68
2022/07/25 05:41:39;;;;;;;6.72;2.30;;;22.90;69.50;;;;;;5033488;28;20501;-68
2022/07/25 05:44:05;;;;;;;8.13;2.38;;;23.00;69.10;;;;;;5016517;28;20036;-68
2022/07/25 05:46:34;;;;;;;5.63;2.20;;;23.00;68.90;;;;;;5017790;28;20845;-68
2022/07/25 05:49:00;;;;;;;6.40;2.22;;;23.00;68.90;;;;;;5023006;28;20153;-68
2022/07/25 05:51:26;;;;;;;8.23;2.30;;;23.20;68.80;;;;;;5028034;28;20057;-68
2022/07/25 05:53:52;;;;;;;8.15;2.45;;;23.00;68.50;;;;;;5022216;28;20124;-68
2022/07/25 05:56:18;;;;;;;6.32;2.13;;;23.00;69.40;;;;;;5017514;28;20033;-68
2022/07/25 05:58:44;;;;;;;7.28;2.33;;;23.00;69.60;;;;;;5014011;28;20026;-68
2022/07/25 06:01:15;;;;;;;7.07;2.30;;;23.10;69.70;;;;;;5014581;28;20028;-68
2022/07/25 06:03:41;;;;;;;12.15;2.42;;;23.10;69.20;;;;;;5021724;28;20018;-68
2022/07/25 06:06:08;;;;;;;8.13;2.08;;;23.30;68.20;;;;;;5023228;28;20044;-68
2022/07/25 06:08:34;;;;;;;7.75;2.33;;;23.20;69.00;;;;;;5032010;28;20025;-68
2022/07/25 06:11:02;;;;;;;7.35;2.20;;;23.20;69.20;;;;;;5028447;28;20037;-68
2022/07/25 06:13:28;;;;;;;5.90;2.20;;;23.20;69.50;;;;;;5018057;28;20029;-68
2022/07/25 06:15:54;;;;;;;6.22;2.30;;;23.10;69.20;;;;;;5030397;28;20041;-68
2022/07/25 06:18:20;;;;;;;4.95;2.17;;;23.10;69.30;;;;;;5026553;28;20026;-68
2022/07/25 06:20:46;;;;;;;6.78;2.55;;;23.10;68.70;;;;;;5030651;28;20026;-68
2022/07/25 06:23:11;;;;;;;8.98;4.47;;;23.10;68.80;;;;;;5026735;28;20032;-67
2022/07/25 06:25:38;;;;;;;12.23;2.40;;;23.00;68.40;;;;;;5021246;28;20508;-67
2022/07/25 06:28:04;;;;;;;6.65;2.50;;;23.20;68.20;;;;;;5030016;28;20167;-67
2022/07/25 06:30:29;;;;;;;7.82;2.38;;;23.20;69.00;;;;;;5030030;28;20896;-67
2022/07/25 06:32:55;;;;;;;6.97;2.30;;;23.20;68.80;;;;;;5029662;28;20574;-67
2022/07/25 06:35:21;;;;;;;7.93;2.40;;;23.20;68.90;;;;;;5032526;28;20052;-67
2022/07/25 06:37:48;;;;;;;6.78;2.20;;;23.30;68.40;;;;;;5024349;28;20025;-67
2022/07/25 06:40:14;;;;;;;5.45;2.13;;;23.70;66.50;;;;;;5031265;28;20071;-67
2022/07/25 06:42:42;;;;;;;9.88;2.80;;;23.90;65.60;;;;;;5031557;28;20030;-67
2022/07/25 06:45:09;;;;;;;7.45;2.40;;;23.90;65.00;;;;;;5026757;28;20026;-67
2022/07/25 06:47:36;;;;;;;5.78;2.78;;;23.90;65.40;;;;;;5028820;28;20068;-67
2022/07/25 06:50:04;;;;;;;7.72;2.47;;;23.90;63.50;;;;;;5028241;28;20033;-67
2022/07/25 06:52:29;;;;;;;16.40;4.80;;;23.80;62.50;;;;;;5026908;28;20030;-67
2022/07/25 06:54:55;;;;;;;12.07;2.80;;;23.80;63.20;;;;;;5025721;28;20045;-67
2022/07/25 06:57:21;;;;;;;12.27;2.72;;;24.60;59.50;;;;;;5027834;28;20038;-67
2022/07/25 06:59:46;;;;;;;10.25;2.20;;;24.80;56.00;;;;;;5026207;28;20030;-67
2022/07/25 07:02:12;;;;;;;10.13;2.28;;;24.90;55.50;;;;;;5023360;28;20508;-67
2022/07/25 07:04:38;;;;;;;7.70;2.30;;;25.70;53.80;;;;;;5022150;28;20194;-67
2022/07/25 07:07:04;;;;;;;6.70;2.50;;;28.10;44.80;;;;;;5024075;28;20032;-68
2022/07/25 07:09:30;;;;;;;5.60;2.35;;;27.70;45.20;;;;;;5022800;28;20041;-68
2022/07/25 07:11:56;;;;;;;7.82;2.22;;;28.00;44.70;;;;;;5020786;28;20096;-68
2022/07/25 07:14:22;;;;;;;9.65;2.55;;;28.00;45.00;;;;;;5025777;28;20039;-68
2022/07/25 07:16:48;;;;;;;6.72;2.00;;;27.60;47.10;;;;;;5024652;28;20060;-68
2022/07/25 07:19:14;;;;;;;8.57;2.60;;;27.10;46.70;;;;;;5028113;28;20472;-68
2022/07/25 07:21:40;;;;;;;10.70;2.25;;;26.00;47.90;;;;;;5025703;28;20029;-68
2022/07/25 07:24:07;;;;;;;9.63;2.30;;;26.20;48.30;;;;;;5022919;28;20040;-68
2022/07/25 07:26:32;;;;;;;9.50;2.47;;;25.70;49.60;;;;;;5025555;28;20021;-68
2022/07/25 07:28:59;;;;;;;12.55;2.50;;;;;;;;;;5023217;28;20087;-68
2022/07/25 07:31:24;;;;;;;7.50;2.53;;;25.30;49.60;;;;;;5023311;28;20041;-67
2022/07/25 07:33:50;;;;;;;8.13;2.30;;;25.40;50.10;;;;;;5025119;28;20104;-68
2022/07/25 07:36:16;;;;;;;7.18;2.30;;;25.20;50.70;;;;;;5028197;28;20031;-68
2022/07/25 07:38:43;;;;;;;9.52;2.38;;;24.80;50.80;;;;;;5029983;28;20040;-68
2022/07/25 07:41:09;;;;;;;6.72;2.10;;;24.60;51.00;;;;;;5026054;28;20059;-68
2022/07/25 07:43:35;;;;;;;7.88;2.40;;;24.70;51.80;;;;;;5027702;28;20029;-68
2022/07/25 07:46:02;;;;;;;11.27;2.30;;;24.70;52.50;;;;;;5021575;28;20567;-69
2022/07/25 07:48:31;;;;;;;9.30;2.90;;;26.10;47.70;;;;;;5019632;28;20030;-69
2022/07/25 07:50:59;;;;;;;7.82;2.30;;;26.90;46.00;;;;;;5028205;28;20504;-69
2022/07/25 07:55:42;;;;;;;8.90;2.85;;;;;;;;;;5023590;28;20131;-69
2022/07/25 07:56:12;;;;;;;7.18;2.10;;;27.50;43.10;;;;;;5031091;28;20068;-69
2022/07/25 07:58:38;;;;;;;10.23;2.22;;;27.90;42.50;;;;;;5025063;28;20025;-69
2022/07/25 08:01:04;;;;;;;8.63;2.22;;;27.90;41.50;;;;;;5024699;28;20033;-69
2022/07/25 08:03:30;;;;;;;12.32;2.08;;;28.00;41.50;;;;;;5024808;28;20029;-69
2022/07/25 08:05:55;;;;;;;6.78;2.00;;;27.70;41.10;;;;;;5029022;28;20040;-69
2022/07/25 08:08:22;;;;;;;7.78;2.40;;;27.20;40.80;;;;;;5024140;28;20151;-69
2022/07/25 08:10:48;;;;;;;12.48;2.22;;;27.10;41.60;;;;;;5026378;28;20125;-69
2022/07/25 08:13:18;;;;;;;5.90;2.08;;;27.10;41.60;;;;;;5026867;28;20566;-69
2022/07/25 08:15:45;;;;;;;6.10;1.77;;;27.30;42.80;;;;;;5027329;28;20091;-69
2022/07/25 08:18:11;;;;;;;9.50;1.83;;;27.30;39.90;;;;;;5022332;28;20556;-69
2022/07/25 08:20:37;;;;;;;7.47;2.05;;;27.90;39.30;;;;;;5024040;28;20112;-69
2022/07/25 08:23:03;;;;;;;7.20;1.40;;;27.80;39.80;;;;;;5023792;28;20034;-68
2022/07/25 08:25:30;;;;;;;7.07;1.52;;;27.70;39.40;;;;;;5026148;28;20120;-69
2022/07/25 08:27:56;;;;;;;6.45;2.58;;;27.60;39.40;;;;;;5017787;28;20037;-69
2022/07/25 08:30:21;;;;;;;9.20;1.92;;;27.20;39.10;;;;;;5025889;28;20034;-69
2022/07/25 08:32:52;;;;;;;7.65;1.83;;;27.10;39.90;;;;;;5026750;28;20108;-69
2022/07/25 08:35:19;;;;;;;8.55;1.80;;;27.00;39.40;;;;;;5029708;28;20504;-69
2022/07/25 08:37:46;;;;;;;5.50;1.60;;;27.00;40.10;;;;;;5025412;28;20022;-69
2022/07/25 08:40:14;;;;;;;6.55;1.75;;;26.20;39.40;;;;;;5025949;28;20723;-69
2022/07/25 08:42:40;;;;;;;8.57;1.63;;;26.70;40.00;;;;;;5023849;28;20488;-69
2022/07/25 08:45:08;;;;;;;6.05;1.80;;;26.70;40.50;;;;;;5027262;28;20080;-69
2022/07/25 08:47:35;;;;;;;7.10;1.60;;;26.70;41.30;;;;;;5028291;28;20032;-69
2022/07/25 08:50:07;;;;;;;6.78;1.50;;;26.60;40.00;;;;;;5025217;28;20072;-69
2022/07/25 08:52:34;;;;;;;6.70;1.80;;;26.60;40.80;;;;;;5020933;28;20090;-69
2022/07/25 08:55:04;;;;;;;11.45;1.83;;;26.30;40.20;;;;;;5021357;28;20049;-69
2022/07/25 08:57:30;;;;;;;7.00;3.05;;;26.40;41.10;;;;;;5020251;28;20511;-69
2022/07/25 08:59:57;;;;;;;8.88;1.65;;;27.00;39.50;;;;;;5023537;28;20025;-69
2022/07/25 09:02:26;;;;;;;10.05;1.58;;;27.00;38.90;;;;;;5028144;28;20416;-68
2022/07/25 09:04:53;;;;;;;13.68;1.90;;;27.00;39.70;;;;;;5027003;28;20033;-69
2022/07/25 09:07:39;;;;;;;5.75;1.67;;;27.00;39.70;;;;;;5030307;28;20033;-69
2022/07/25 09:10:18;;;;;;;7.93;1.70;;;26.90;39.90;;;;;;5027343;28;20025;-68
2022/07/25 09:12:55;;;;;;;8.50;1.70;;;26.90;39.60;;;;;;5028087;28;20029;-69
2022/07/25 09:15:36;;;;;;;8.15;1.60;;;27.60;38.70;;;;;;5028383;28;20183;-69
2022/07/25 09:18:07;;;;;;;6.22;1.55;;;27.90;37.30;;;;;;5028339;28;20079;-69
2022/07/25 09:20:42;;;;;;;9.65;1.52;;;28.10;36.60;;;;;;5029814;28;20108;-69
2022/07/25 09:23:09;;;;;;;9.63;1.45;;;28.70;34.50;;;;;;5029802;28;20033;-68
2022/07/25 09:25:36;;;;;;;7.60;1.30;;;29.00;34.90;;;;;;5027714;28;20029;-69
2022/07/25 09:28:17;;;;;;;9.32;1.80;;;29.60;33.60;;;;;;5030727;28;20025;-69
2022/07/25 09:30:58;;;;;;;5.47;1.40;;;30.20;32.20;;;;;;5023847;28;20029;-69
2022/07/25 09:33:25;;;;;;;4.43;1.20;;;31.00;31.20;;;;;;5023916;28;20104;-68
2022/07/25 09:35:52;;;;;;;6.13;1.30;;;31.10;30.40;;;;;;5031043;28;20033;-69
2022/07/25 09:38:21;;;;;;;6.00;1.40;;;30.90;31.10;;;;;;5029227;28;20024;-69
2022/07/25 09:41:00;;;;;;;7.00;1.45;;;30.60;31.50;;;;;;5022545;28;20026;-69
2022/07/25 09:43:39;;;;;;;7.00;1.63;;;30.30;31.90;;;;;;5030176;28;20038;-68
2022/07/25 09:46:06;;;;;;;8.17;1.47;;;30.60;31.60;;;;;;5027262;28;20017;-69
2022/07/25 09:48:33;;;;;;;5.97;1.60;;;31.00;30.60;;;;;;5028305;28;20044;-69
2022/07/25 09:50:59;;;;;;;8.35;1.45;;;30.70;30.00;;;;;;5026641;28;20112;-69
2022/07/25 09:53:24;;;;;;;5.63;1.40;;;30.60;31.10;;;;;;5025915;28;20132;-69
2022/07/25 09:55:52;;;;;;;4.15;1.30;;;30.30;31.50;;;;;;5021482;28;20037;-69
2022/07/25 09:58:18;;;;;;;5.95;1.50;;;30.70;31.60;;;;;;5026496;28;20021;-69
2022/07/25 10:00:44;;;;;;;6.75;1.40;;;31.00;30.20;;;;;;5026178;28;20079;-69
2022/07/25 10:03:49;;;;;;;8.18;1.77;;;30.90;31.00;;;;;;5029018;28;20109;-69
2022/07/25 10:06:48;;;;;;;6.95;1.50;;;31.40;30.00;;;;;;5021976;28;20124;-70
2022/07/25 10:09:15;;;;;;;8.25;1.60;;;32.60;29.10;;;;;;5022211;28;20037;-70
2022/07/25 10:12:04;;;;;;;6.53;1.30;;;32.30;29.10;;;;;;5029225;28;20029;-70
2022/07/25 10:14:30;;;;;;;6.45;1.70;;;32.10;29.10;;;;;;5015441;28;20572;-69
2022/07/25 10:16:56;;;;;;;7.90;1.50;;;31.80;29.60;;;;;;5026014;28;20223;-70
2022/07/25 10:19:45;;;;;;;9.32;1.60;;;33.20;27.90;;;;;;5026770;28;20595;-70
2022/07/25 10:22:11;;;;;;;5.38;1.25;;;33.90;26.70;;;;;;5025872;28;20050;-70
2022/07/25 10:24:41;;;;;;;7.45;1.70;;;33.10;27.20;;;;;;5008606;28;20692;-71
2022/07/25 10:27:10;;;;;;;6.20;1.40;;;33.50;26.70;;;;;;5026125;28;20095;-69
2022/07/25 10:29:37;;;;;;;4.93;1.27;;;32.00;28.10;;;;;;5023207;28;20042;-69
2022/07/25 10:32:09;;;;;;;7.55;1.30;;;32.60;26.90;;;;;;5025568;28;20060;-70
2022/07/25 10:34:35;;;;;;;6.25;1.30;;;32.70;27.10;;;;;;5025203;28;20056;-71
2022/07/25 10:37:35;;;;;;;8.93;1.27;;;34.50;25.50;;;;;;5029392;28;20061;-70
2022/07/25 10:40:02;;;;;;;6.85;1.50;;;35.10;24.80;;;;;;5011669;28;20095;-69
2022/07/25 10:42:31;;;;;;;4.80;1.35;;;35.10;24.70;;;;;;5026431;28;20040;-69
2022/07/25 10:45:04;;;;;;;6.03;1.40;;;36.50;23.30;;;;;;5026393;28;20025;-68
2022/07/25 10:47:37;;;;;;;8.35;1.17;;;37.00;22.70;;;;;;5028170;28;20742;-68
2022/07/25 10:50:03;;;;;;;5.93;1.45;;;35.60;24.10;;;;;;5027048;28;20106;-68
2022/07/25 10:52:29;;;;;;;6.78;1.20;;;34.60;25.50;;;;;;5028877;28;20041;-68
2022/07/25 10:55:00;;;;;;;5.35;1.30;;;33.60;26.20;;;;;;5017859;28;20500;-68
2022/07/25 10:57:27;;;;;;;4.95;1.30;;;35.20;24.50;;;;;;5024713;28;20087;-69
2022/07/25 10:59:53;;;;;;;6.25;1.35;;;37.40;22.60;;;;;;5026129;28;20056;-68
2022/07/25 11:02:19;;;;;;;5.47;1.30;;;39.00;20.80;;;;;;5026353;28;20107;-67
2022/07/25 11:05:00;;;;;;;7.50;1.10;;;40.10;19.90;;;;;;5020542;28;20172;-68
2022/07/25 11:07:27;;;;;;;4.72;1.10;;;39.00;20.20;;;;;;5020178;28;20492;-70
2022/07/25 11:10:01;;;;;;;6.57;1.27;;;38.20;21.30;;;;;;5027002;28;20099;-68
2022/07/25 11:12:27;;;;;;;7.05;1.27;;;39.70;20.10;;;;;;5024755;28;20400;-70
2022/07/25 11:15:05;;;;;;;9.23;1.30;;;40.10;19.50;;;;;;5024677;28;20037;-70
2022/07/25 11:17:31;;;;;;;6.78;1.17;;;39.60;19.60;;;;;;5024591;28;20032;-69
2022/07/25 11:20:04;;;;;;;6.95;1.40;;;37.50;21.60;;;;;;5024070;28;20033;-68
2022/07/25 11:22:30;;;;;;;6.05;1.20;;;37.20;23.00;;;;;;5025106;28;20045;-69
2022/07/25 11:24:57;;;;;;;5.72;1.20;;;36.30;23.20;;;;;;5015345;28;20041;-69
2022/07/25 11:27:32;;;;;;;6.13;1.13;;;35.30;24.00;;;;;;5016894;28;20388;-68
2022/07/25 11:30:16;;;;;;;7.43;2.05;;;36.30;22.90;;;;;;5017747;28;20041;-69
2022/07/25 11:32:50;;;;;;;6.05;1.20;;;36.30;22.40;;;;;;5026470;28;20039;-69
2022/07/25 11:35:27;;;;;;;4.15;1.00;;;37.50;21.40;;;;;;5017641;28;20048;-70
2022/07/25 11:37:53;;;;;;;7.13;1.00;;;39.20;18.90;;;;;;5021588;28;20403;-69
2022/07/25 11:40:20;;;;;;;5.72;1.20;;;37.50;20.50;;;;;;5018636;28;20033;-69
2022/07/25 11:42:54;;;;;;;3.63;0.98;;;37.40;21.10;;;;;;5023661;28;20033;-69
2022/07/25 11:45:27;;;;;;;7.07;1.05;;;37.80;21.00;;;;;;5028616;28;20542;-69
2022/07/25 11:48:06;;;;;;;5.10;1.00;;;39.90;19.50;;;;;;5028110;28;20083;-69
2022/07/25 11:50:34;;;;;;;3.75;0.90;;;41.60;18.00;;;;;;5025406;28;20033;-68
2022/07/25 11:53:05;;;;;;;6.30;1.00;;;41.70;16.90;;;;;;5023671;28;20167;-67
2022/07/25 11:55:35;;;;;;;6.50;1.00;;;41.10;17.80;;;;;;5026637;28;20032;-68
2022/07/25 11:58:03;;;;;;;4.97;0.90;;;39.60;18.90;;;;;;5025141;28;20045;-68
2022/07/25 12:00:34;;;;;;;7.25;1.08;;;38.10;20.20;;;;;;5023350;28;20025;-68
2022/07/25 12:03:12;;;;;;;4.25;0.90;;;38.80;19.80;;;;;;5023557;28;20080;-68
2022/07/25 12:05:38;;;;;;;3.75;0.80;;;40.20;18.60;;;;;;5024641;28;20412;-68
2022/07/25 12:08:14;;;;;;;4.40;0.70;;;41.70;17.10;;;;;;5024669;28;20029;-69
2022/07/25 12:10:50;;;;;;;3.78;0.85;;;43.60;14.60;;;;;;5026363;28;20041;-67
2022/07/25 12:13:24;;;;;;;4.55;1.00;;;43.50;15.30;;;;;;5026898;28;20152;-69
2022/07/25 12:15:50;;;;;;;6.70;1.08;;;44.10;14.70;;;;;;5022984;28;20029;-69
2022/07/25 12:18:17;;;;;;;7.22;2.60;;;43.80;15.40;;;;;;5026498;28;20582;-69
2022/07/25 12:20:43;;;;;;;4.55;0.90;;;42.60;16.00;;;;;;5023795;28;20029;-67
2022/07/25 12:23:11;;;;;;;3.05;0.70;;;40.80;17.20;;;;;;5022682;28;20395;-68
2022/07/25 12:25:41;;;;;;;5.70;0.90;;;40.50;17.50;;;;;;5024154;28;20049;-68
2022/07/25 12:28:08;;;;;;;5.75;1.00;;;41.90;16.70;;;;;;5024136;28;20037;-68
2022/07/25 12:30:36;;;;;;;4.93;1.00;;;43.20;15.70;;;;;;5021103;28;20033;-69
2022/07/25 12:33:02;;;;;;;5.57;1.02;;;43.10;15.60;;;;;;5024320;28;20028;-69
2022/07/25 12:35:28;;;;;;;7.20;1.02;;;43.00;15.70;;;;;;5024609;28;20025;-68
2022/07/25 12:37:54;;;;;;;4.30;0.77;;;42.70;16.00;;;;;;5029831;28;20052;-69
2022/07/25 12:40:20;;;;;;;4.55;0.95;;;43.20;15.30;;;;;;5029612;28;20065;-68
2022/07/25 12:42:48;;;;;;;6.72;0.95;;;41.80;16.70;;;;;;5030781;28;20032;-69
2022/07/25 12:45:15;;;;;;;7.53;1.10;;;42.00;16.80;;;;;;5021199;28;20084;-68
2022/07/25 12:47:45;;;;;;;4.45;0.98;;;42.30;16.30;;;;;;5027419;28;20029;-68
2022/07/25 12:50:12;;;;;;;6.65;0.93;;;40.50;17.40;;;;;;5031017;28;20029;-68